sensor_id;sensor_type;location;lat;lon;timestamp;temperature;humidity
20915;DHT22;10617;52.032;5.298;2023-06-10T00:01:55;23.80;86.00
20915;DHT22;10617;52.032;5.298;2023-06-10T00:05:59;23.80;86.00
20915;DHT22;10617;52.032;5.298;2023-06-10T00:10:01;23.70;85.90
20915;DHT22;10617;52.032;5.298;2023-06-10T00:14:06;23.70;85.90
20915;DHT22;10617;52.032;5.298;2023-06-10T00:18:08;23.60;85.80
20915;DHT22;10617;52.032;5.298;2023-06-10T00:22:11;23.60;85.80
20915;DHT22;10617;52.032;5.298;2023-06-10T00:26:13;23.50;86.30
20915;DHT22;10617;52.032;5.298;2023-06-10T00:30:15;23.50;85.70
20915;DHT22;10617;52.032;5.298;2023-06-10T00:44:23;23.30;85.50
20915;DHT22;10617;52.032;5.298;2023-06-10T00:48:25;23.20;85.50
20915;DHT22;10617;52.032;5.298;2023-06-10T00:52:27;23.20;85.40
20915;DHT22;10617;52.032;5.298;2023-06-10T00:56:29;23.20;85.40
20915;DHT22;10617;52.032;5.298;2023-06-10T01:00:31;23.10;85.20
20915;DHT22;10617;52.032;5.298;2023-06-10T01:04:33;23.10;85.20
20915;DHT22;10617;52.032;5.298;2023-06-10T01:08:36;23.00;85.20
20915;DHT22;10617;52.032;5.298;2023-06-10T01:12:43;23.00;85.20
20915;DHT22;10617;52.032;5.298;2023-06-10T01:16:50;22.90;85.00
20915;DHT22;10617;52.032;5.298;2023-06-10T01:20:54;22.90;85.00
20915;DHT22;10617;52.032;5.298;2023-06-10T01:24:55;22.80;84.90
20915;DHT22;10617;52.032;5.298;2023-06-10T01:29:06;22.80;84.80
20915;DHT22;10617;52.032;5.298;2023-06-10T01:33:09;22.70;84.60
20915;DHT22;10617;52.032;5.298;2023-06-10T01:37:12;22.70;84.60
20915;DHT22;10617;52.032;5.298;2023-06-10T01:41:15;22.70;84.50
20915;DHT22;10617;52.032;5.298;2023-06-10T01:45:17;22.60;84.30
20915;DHT22;10617;52.032;5.298;2023-06-10T01:49:19;22.60;84.30
20915;DHT22;10617;52.032;5.298;2023-06-10T01:53:21;22.50;84.20
20915;DHT22;10617;52.032;5.298;2023-06-10T01:57:23;22.50;84.80
20915;DHT22;10617;52.032;5.298;2023-06-10T02:01:25;22.40;84.00
20915;DHT22;10617;52.032;5.298;2023-06-10T02:05:27;22.40;84.00
20915;DHT22;10617;52.032;5.298;2023-06-10T02:09:29;22.40;83.90
20915;DHT22;10617;52.032;5.298;2023-06-10T02:13:31;22.30;83.80
20915;DHT22;10617;52.032;5.298;2023-06-10T02:17:32;22.30;83.80
20915;DHT22;10617;52.032;5.298;2023-06-10T02:21:34;22.20;83.70
20915;DHT22;10617;52.032;5.298;2023-06-10T02:25:36;22.20;83.60
20915;DHT22;10617;52.032;5.298;2023-06-10T02:29:38;22.20;83.60
20915;DHT22;10617;52.032;5.298;2023-06-10T02:33:39;22.10;83.50
20915;DHT22;10617;52.032;5.298;2023-06-10T02:37:41;22.10;83.50
20915;DHT22;10617;52.032;5.298;2023-06-10T02:41:43;22.00;83.40
20915;DHT22;10617;52.032;5.298;2023-06-10T02:45:45;22.00;83.40
20915;DHT22;10617;52.032;5.298;2023-06-10T02:49:46;21.90;83.30
20915;DHT22;10617;52.032;5.298;2023-06-10T02:53:48;21.80;83.20
20915;DHT22;10617;52.032;5.298;2023-06-10T02:57:50;21.80;83.30
20915;DHT22;10617;52.032;5.298;2023-06-10T03:01:51;21.70;83.30
20915;DHT22;10617;52.032;5.298;2023-06-10T03:05:55;21.70;83.30
20915;DHT22;10617;52.032;5.298;2023-06-10T03:09:58;21.70;83.40
20915;DHT22;10617;52.032;5.298;2023-06-10T03:13:59;21.60;83.40
20915;DHT22;10617;52.032;5.298;2023-06-10T03:18:01;21.50;83.30
20915;DHT22;10617;52.032;5.298;2023-06-10T03:22:08;21.50;84.00
20915;DHT22;10617;52.032;5.298;2023-06-10T03:26:10;21.40;83.40
20915;DHT22;10617;52.032;5.298;2023-06-10T03:30:13;21.40;83.40
20915;DHT22;10617;52.032;5.298;2023-06-10T03:34:15;21.40;83.50
20915;DHT22;10617;52.032;5.298;2023-06-10T03:38:17;21.30;83.40
20915;DHT22;10617;52.032;5.298;2023-06-10T03:42:18;21.30;83.50
20915;DHT22;10617;52.032;5.298;2023-06-10T03:46:20;21.20;83.50
20915;DHT22;10617;52.032;5.298;2023-06-10T03:50:22;21.20;83.50
20915;DHT22;10617;52.032;5.298;2023-06-10T03:54:25;21.20;83.60
20915;DHT22;10617;52.032;5.298;2023-06-10T03:58:26;21.10;83.70
20915;DHT22;10617;52.032;5.298;2023-06-10T04:02:28;21.10;83.90
20915;DHT22;10617;52.032;5.298;2023-06-10T04:06:30;21.10;84.00
20915;DHT22;10617;52.032;5.298;2023-06-10T04:10:32;21.10;84.20
20915;DHT22;10617;52.032;5.298;2023-06-10T04:14:33;21.10;84.30
20915;DHT22;10617;52.032;5.298;2023-06-10T04:23:39;21.10;84.60
20915;DHT22;10617;52.032;5.298;2023-06-10T04:27:41;21.10;84.80
20915;DHT22;10617;52.032;5.298;2023-06-10T04:31:43;21.10;85.00
20915;DHT22;10617;52.032;5.298;2023-06-10T04:35:44;21.10;85.30
20915;DHT22;10617;52.032;5.298;2023-06-10T04:39:49;21.10;85.50
20915;DHT22;10617;52.032;5.298;2023-06-10T04:43:50;21.20;85.80
20915;DHT22;10617;52.032;5.298;2023-06-10T04:47:52;21.20;86.10
20915;DHT22;10617;52.032;5.298;2023-06-10T04:51:57;21.20;86.20
20915;DHT22;10617;52.032;5.298;2023-06-10T04:55:58;21.20;86.30
20915;DHT22;10617;52.032;5.298;2023-06-10T05:00:00;21.30;86.60
20915;DHT22;10617;52.032;5.298;2023-06-10T05:04:02;21.30;86.90
20915;DHT22;10617;52.032;5.298;2023-06-10T05:08:06;21.30;87.10
20915;DHT22;10617;52.032;5.298;2023-06-10T05:12:09;21.30;87.30
20915;DHT22;10617;52.032;5.298;2023-06-10T05:16:10;21.40;87.60
20915;DHT22;10617;52.032;5.298;2023-06-10T05:20:12;21.40;87.80
20915;DHT22;10617;52.032;5.298;2023-06-10T05:24:15;21.40;88.00
20915;DHT22;10617;52.032;5.298;2023-06-10T05:28:17;21.50;88.20
20915;DHT22;10617;52.032;5.298;2023-06-10T05:32:18;21.50;88.50
20915;DHT22;10617;52.032;5.298;2023-06-10T05:36:20;21.60;88.70
20915;DHT22;10617;52.032;5.298;2023-06-10T05:40:22;21.60;88.80
20915;DHT22;10617;52.032;5.298;2023-06-10T05:44:24;21.70;89.10
20915;DHT22;10617;52.032;5.298;2023-06-10T05:48:25;21.80;89.40
20915;DHT22;10617;52.032;5.298;2023-06-10T05:52:27;21.80;89.60
20915;DHT22;10617;52.032;5.298;2023-06-10T05:56:29;22.00;90.00
20915;DHT22;10617;52.032;5.298;2023-06-10T06:00:31;22.00;90.00
20915;DHT22;10617;52.032;5.298;2023-06-10T06:04:33;22.10;90.10
20915;DHT22;10617;52.032;5.298;2023-06-10T06:08:35;22.20;90.50
20915;DHT22;10617;52.032;5.298;2023-06-10T06:12:36;22.30;90.30
20915;DHT22;10617;52.032;5.298;2023-06-10T06:16:38;22.40;90.40
20915;DHT22;10617;52.032;5.298;2023-06-10T06:20:40;22.50;90.80
20915;DHT22;10617;52.032;5.298;2023-06-10T06:24:42;22.50;90.60
20915;DHT22;10617;52.032;5.298;2023-06-10T06:28:43;22.60;90.70
20915;DHT22;10617;52.032;5.298;2023-06-10T06:32:45;22.70;90.80
20915;DHT22;10617;52.032;5.298;2023-06-10T06:36:47;22.80;90.90
20915;DHT22;10617;52.032;5.298;2023-06-10T06:40:48;22.80;90.90
20915;DHT22;10617;52.032;5.298;2023-06-10T06:44:50;22.90;91.00
20915;DHT22;10617;52.032;5.298;2023-06-10T06:48:52;23.10;91.10
20915;DHT22;10617;52.032;5.298;2023-06-10T06:52:54;23.20;91.60
20915;DHT22;10617;52.032;5.298;2023-06-10T06:56:55;23.30;91.30
20915;DHT22;10617;52.032;5.298;2023-06-10T07:00:57;23.40;91.40
20915;DHT22;10617;52.032;5.298;2023-06-10T07:04:58;23.60;91.50
20915;DHT22;10617;52.032;5.298;2023-06-10T07:09:00;23.70;91.60
20915;DHT22;10617;52.032;5.298;2023-06-10T07:13:02;23.80;91.60
20915;DHT22;10617;52.032;5.298;2023-06-10T07:17:04;23.90;91.60
20915;DHT22;10617;52.032;5.298;2023-06-10T07:21:06;24.00;91.70
20915;DHT22;10617;52.032;5.298;2023-06-10T07:25:08;24.10;91.80
20915;DHT22;10617;52.032;5.298;2023-06-10T07:29:10;24.20;91.80
20915;DHT22;10617;52.032;5.298;2023-06-10T07:38:16;24.50;91.90
20915;DHT22;10617;52.032;5.298;2023-06-10T07:42:18;24.60;91.90
20915;DHT22;10617;52.032;5.298;2023-06-10T07:46:20;24.70;92.00
20915;DHT22;10617;52.032;5.298;2023-06-10T07:50:23;24.80;92.00
20915;DHT22;10617;52.032;5.298;2023-06-10T07:54:24;24.80;91.90
20915;DHT22;10617;52.032;5.298;2023-06-10T07:58:29;24.90;92.10
20915;DHT22;10617;52.032;5.298;2023-06-10T08:02:31;25.00;92.10
20915;DHT22;10617;52.032;5.298;2023-06-10T08:06:33;25.10;92.10
20915;DHT22;10617;52.032;5.298;2023-06-10T08:10:35;25.20;92.10
20915;DHT22;10617;52.032;5.298;2023-06-10T08:14:36;25.20;92.00
20915;DHT22;10617;52.032;5.298;2023-06-10T08:18:38;25.30;92.10
20915;DHT22;10617;52.032;5.298;2023-06-10T08:22:40;25.30;92.10
20915;DHT22;10617;52.032;5.298;2023-06-10T08:26:42;25.40;92.10
20915;DHT22;10617;52.032;5.298;2023-06-10T08:30:43;25.50;92.20
20915;DHT22;10617;52.032;5.298;2023-06-10T08:34:45;25.50;92.10
20915;DHT22;10617;52.032;5.298;2023-06-10T08:38:47;25.60;92.10
20915;DHT22;10617;52.032;5.298;2023-06-10T08:42:49;25.60;92.10
20915;DHT22;10617;52.032;5.298;2023-06-10T08:46:55;25.60;92.10
20915;DHT22;10617;52.032;5.298;2023-06-10T08:50:57;25.70;92.10
20915;DHT22;10617;52.032;5.298;2023-06-10T08:55:00;25.80;92.20
20915;DHT22;10617;52.032;5.298;2023-06-10T08:59:04;25.90;92.20
20915;DHT22;10617;52.032;5.298;2023-06-10T09:03:06;25.90;92.20
20915;DHT22;10617;52.032;5.298;2023-06-10T09:07:10;26.00;92.20
20915;DHT22;10617;52.032;5.298;2023-06-10T09:11:12;26.10;92.20
20915;DHT22;10617;52.032;5.298;2023-06-10T09:15:14;26.20;92.20
20915;DHT22;10617;52.032;5.298;2023-06-10T09:19:16;26.20;92.20
20915;DHT22;10617;52.032;5.298;2023-06-10T09:23:18;26.30;92.20
20915;DHT22;10617;52.032;5.298;2023-06-10T09:27:20;26.30;92.20
20915;DHT22;10617;52.032;5.298;2023-06-10T09:31:21;26.40;92.20
20915;DHT22;10617;52.032;5.298;2023-06-10T09:35:24;26.50;92.30
20915;DHT22;10617;52.032;5.298;2023-06-10T09:39:26;26.60;92.20
20915;DHT22;10617;52.032;5.298;2023-06-10T09:43:41;26.70;92.20
20915;DHT22;10617;52.032;5.298;2023-06-10T09:47:45;26.70;92.10
20915;DHT22;10617;52.032;5.298;2023-06-10T09:51:50;26.80;92.10
20915;DHT22;10617;52.032;5.298;2023-06-10T09:55:53;26.90;92.10
20915;DHT22;10617;52.032;5.298;2023-06-10T09:59:55;26.90;91.60
20915;DHT22;10617;52.032;5.298;2023-06-10T10:03:57;27.00;91.70
20915;DHT22;10617;52.032;5.298;2023-06-10T10:18:10;27.20;91.70
20915;DHT22;10617;52.032;5.298;2023-06-10T10:22:15;27.30;91.50
20915;DHT22;10617;52.032;5.298;2023-06-10T10:26:18;27.30;91.60
20915;DHT22;10617;52.032;5.298;2023-06-10T10:30:21;27.40;91.50
20915;DHT22;10617;52.032;5.298;2023-06-10T10:34:24;27.50;91.50
20915;DHT22;10617;52.032;5.298;2023-06-10T10:38:30;27.50;91.20
20915;DHT22;10617;52.032;5.298;2023-06-10T10:42:33;27.60;91.30
20915;DHT22;10617;52.032;5.298;2023-06-10T10:46:41;27.60;91.00
20915;DHT22;10617;52.032;5.298;2023-06-10T10:50:43;27.70;90.60
20915;DHT22;10617;52.032;5.298;2023-06-10T10:54:57;27.70;91.00
20915;DHT22;10617;52.032;5.298;2023-06-10T10:59:05;27.80;91.00
20915;DHT22;10617;52.032;5.298;2023-06-10T11:03:07;27.90;90.90
20915;DHT22;10617;52.032;5.298;2023-06-10T11:07:11;28.00;91.00
20915;DHT22;10617;52.032;5.298;2023-06-10T11:11:20;28.00;90.50
20915;DHT22;10617;52.032;5.298;2023-06-10T11:15:26;28.10;90.60
20915;DHT22;10617;52.032;5.298;2023-06-10T11:19:32;28.10;90.40
20915;DHT22;10617;52.032;5.298;2023-06-10T11:23:38;28.20;90.30
20915;DHT22;10617;52.032;5.298;2023-06-10T11:27:40;28.20;90.10
20915;DHT22;10617;52.032;5.298;2023-06-10T11:31:43;28.20;89.90
20915;DHT22;10617;52.032;5.298;2023-06-10T11:35:45;28.30;89.70
20915;DHT22;10617;52.032;5.298;2023-06-10T11:39:47;28.40;90.00
20915;DHT22;10617;52.032;5.298;2023-06-10T11:43:49;28.50;89.20
20915;DHT22;10617;52.032;5.298;2023-06-10T11:47:57;28.60;89.30
20915;DHT22;10617;52.032;5.298;2023-06-10T11:51:59;28.60;89.50
20915;DHT22;10617;52.032;5.298;2023-06-10T11:56:01;28.60;88.80
20915;DHT22;10617;52.032;5.298;2023-06-10T12:00:06;28.60;88.50
20915;DHT22;10617;52.032;5.298;2023-06-10T12:04:13;28.70;88.60
20915;DHT22;10617;52.032;5.298;2023-06-10T12:08:15;28.70;87.90
20915;DHT22;10617;52.032;5.298;2023-06-10T12:12:16;28.80;87.50
20915;DHT22;10617;52.032;5.298;2023-06-10T12:16:20;28.80;88.20
20915;DHT22;10617;52.032;5.298;2023-06-10T12:20:26;28.90;88.00
20915;DHT22;10617;52.032;5.298;2023-06-10T12:24:28;28.90;87.70
20915;DHT22;10617;52.032;5.298;2023-06-10T12:28:30;29.00;87.30
20915;DHT22;10617;52.032;5.298;2023-06-10T12:36:37;29.00;85.80
20915;DHT22;10617;52.032;5.298;2023-06-10T12:40:39;29.00;85.90
20915;DHT22;10617;52.032;5.298;2023-06-10T12:44:44;29.00;85.20
20915;DHT22;10617;52.032;5.298;2023-06-10T12:48:49;29.00;85.50
20915;DHT22;10617;52.032;5.298;2023-06-10T12:52:53;29.10;85.30
20915;DHT22;10617;52.032;5.298;2023-06-10T12:56:54;29.10;85.40
20915;DHT22;10617;52.032;5.298;2023-06-10T13:00:56;29.10;84.30
20915;DHT22;10617;52.032;5.298;2023-06-10T13:04:58;29.10;84.60
20915;DHT22;10617;52.032;5.298;2023-06-10T13:09:00;29.20;84.00
20915;DHT22;10617;52.032;5.298;2023-06-10T13:13:02;29.20;83.50
20915;DHT22;10617;52.032;5.298;2023-06-10T13:17:06;29.20;82.90
20915;DHT22;10617;52.032;5.298;2023-06-10T13:21:08;29.20;82.90
20915;DHT22;10617;52.032;5.298;2023-06-10T13:25:10;29.30;82.80
20915;DHT22;10617;52.032;5.298;2023-06-10T13:29:12;29.30;82.90
20915;DHT22;10617;52.032;5.298;2023-06-10T13:33:15;29.40;82.80
20915;DHT22;10617;52.032;5.298;2023-06-10T13:37:17;29.40;82.80
20915;DHT22;10617;52.032;5.298;2023-06-10T13:41:19;29.50;82.60
20915;DHT22;10617;52.032;5.298;2023-06-10T13:45:21;29.50;81.70
20915;DHT22;10617;52.032;5.298;2023-06-10T13:49:22;29.50;82.20
20915;DHT22;10617;52.032;5.298;2023-06-10T13:53:24;29.60;81.60
20915;DHT22;10617;52.032;5.298;2023-06-10T13:57:26;29.50;80.90
20915;DHT22;10617;52.032;5.298;2023-06-10T14:01:28;29.60;81.30
20915;DHT22;10617;52.032;5.298;2023-06-10T14:05:29;29.60;80.10
20915;DHT22;10617;52.032;5.298;2023-06-10T14:09:32;29.60;81.00
20915;DHT22;10617;52.032;5.298;2023-06-10T14:13:34;29.70;81.10
20915;DHT22;10617;52.032;5.298;2023-06-10T14:17:36;29.70;80.50
20915;DHT22;10617;52.032;5.298;2023-06-10T14:21:37;29.80;79.90
20915;DHT22;10617;52.032;5.298;2023-06-10T14:25:39;29.80;80.00
20915;DHT22;10617;52.032;5.298;2023-06-10T14:29:41;29.80;79.00
20915;DHT22;10617;52.032;5.298;2023-06-10T14:33:43;29.90;79.20
20915;DHT22;10617;52.032;5.298;2023-06-10T14:37:45;29.90;79.00
20915;DHT22;10617;52.032;5.298;2023-06-10T14:41:46;30.00;79.10
20915;DHT22;10617;52.032;5.298;2023-06-10T14:45:48;30.00;79.00
20915;DHT22;10617;52.032;5.298;2023-06-10T14:49:52;30.10;78.50
20915;DHT22;10617;52.032;5.298;2023-06-10T14:53:54;30.20;78.60
20915;DHT22;10617;52.032;5.298;2023-06-10T14:57:56;30.20;77.60
20915;DHT22;10617;52.032;5.298;2023-06-10T15:01:59;30.10;77.90
20915;DHT22;10617;52.032;5.298;2023-06-10T15:06:02;30.10;77.70
20915;DHT22;10617;52.032;5.298;2023-06-10T15:10:04;30.10;77.20
20915;DHT22;10617;52.032;5.298;2023-06-10T15:14:06;30.20;77.50
20915;DHT22;10617;52.032;5.298;2023-06-10T15:18:08;30.20;76.70
20915;DHT22;10617;52.032;5.298;2023-06-10T15:22:10;30.30;76.60
20915;DHT22;10617;52.032;5.298;2023-06-10T15:26:13;30.30;77.20
20915;DHT22;10617;52.032;5.298;2023-06-10T15:30:15;30.40;76.90
20915;DHT22;10617;52.032;5.298;2023-06-10T15:34:16;30.40;77.10
20915;DHT22;10617;52.032;5.298;2023-06-10T15:38:18;30.50;76.10
20915;DHT22;10617;52.032;5.298;2023-06-10T15:42:20;30.50;75.40
20915;DHT22;10617;52.032;5.298;2023-06-10T15:46:21;30.60;76.70
20915;DHT22;10617;52.032;5.298;2023-06-10T15:50:24;30.70;76.20
20915;DHT22;10617;52.032;5.298;2023-06-10T15:54:26;30.80;75.10
20915;DHT22;10617;52.032;5.298;2023-06-10T15:58:27;31.00;75.80
20915;DHT22;10617;52.032;5.298;2023-06-10T16:02:29;31.20;75.40
20915;DHT22;10617;52.032;5.298;2023-06-10T16:06:32;31.40;75.70
20915;DHT22;10617;52.032;5.298;2023-06-10T16:10:35;31.70;75.60
20915;DHT22;10617;52.032;5.298;2023-06-10T16:14:37;31.90;75.70
20915;DHT22;10617;52.032;5.298;2023-06-10T16:18:39;32.00;74.50
20915;DHT22;10617;52.032;5.298;2023-06-10T16:22:41;32.10;74.60
20915;DHT22;10617;52.032;5.298;2023-06-10T16:26:43;32.20;74.10
20915;DHT22;10617;52.032;5.298;2023-06-10T16:30:44;32.50;74.20
20915;DHT22;10617;52.032;5.298;2023-06-10T16:34:46;32.80;74.20
20915;DHT22;10617;52.032;5.298;2023-06-10T16:38:48;33.10;75.80
20915;DHT22;10617;52.032;5.298;2023-06-10T16:42:49;33.30;76.40
20915;DHT22;10617;52.032;5.298;2023-06-10T16:46:51;33.50;77.30
20915;DHT22;10617;52.032;5.298;2023-06-10T16:50:53;33.60;77.90
20915;DHT22;10617;52.032;5.298;2023-06-10T16:54:55;33.60;78.30
20915;DHT22;10617;52.032;5.298;2023-06-10T16:58:56;33.60;78.80
20915;DHT22;10617;52.032;5.298;2023-06-10T17:02:58;33.50;79.10
20915;DHT22;10617;52.032;5.298;2023-06-10T17:07:01;33.30;77.90
20915;DHT22;10617;52.032;5.298;2023-06-10T17:11:03;33.00;78.30
20915;DHT22;10617;52.032;5.298;2023-06-10T17:15:05;32.70;76.60
20915;DHT22;10617;52.032;5.298;2023-06-10T17:19:07;32.40;76.10
20915;DHT22;10617;52.032;5.298;2023-06-10T17:23:08;32.20;75.70
20915;DHT22;10617;52.032;5.298;2023-06-10T17:27:11;32.00;74.80
20915;DHT22;10617;52.032;5.298;2023-06-10T17:31:13;31.70;73.30
20915;DHT22;10617;52.032;5.298;2023-06-10T17:35:14;31.60;72.30
20915;DHT22;10617;52.032;5.298;2023-06-10T17:39:16;31.50;72.20
20915;DHT22;10617;52.032;5.298;2023-06-10T17:43:18;31.30;72.20
20915;DHT22;10617;52.032;5.298;2023-06-10T17:47:21;31.20;71.60
20915;DHT22;10617;52.032;5.298;2023-06-10T17:51:23;31.10;71.40
20915;DHT22;10617;52.032;5.298;2023-06-10T17:55:25;31.00;70.60
20915;DHT22;10617;52.032;5.298;2023-06-10T17:59:27;30.90;71.10
20915;DHT22;10617;52.032;5.298;2023-06-10T18:03:28;30.90;70.50
20915;DHT22;10617;52.032;5.298;2023-06-10T18:07:30;30.80;70.10
20915;DHT22;10617;52.032;5.298;2023-06-10T18:11:32;30.80;71.10
20915;DHT22;10617;52.032;5.298;2023-06-10T18:15:34;30.70;69.50
20915;DHT22;10617;52.032;5.298;2023-06-10T18:19:38;30.60;70.10
20915;DHT22;10617;52.032;5.298;2023-06-10T18:23:40;30.60;69.90
20915;DHT22;10617;52.032;5.298;2023-06-10T18:27:41;30.50;69.70
20915;DHT22;10617;52.032;5.298;2023-06-10T18:31:43;30.40;69.60
20915;DHT22;10617;52.032;5.298;2023-06-10T18:35:45;30.30;68.90
20915;DHT22;10617;52.032;5.298;2023-06-10T18:39:46;30.20;68.90
20915;DHT22;10617;52.032;5.298;2023-06-10T18:43:48;30.20;68.90
20915;DHT22;10617;52.032;5.298;2023-06-10T18:47:50;30.10;68.80
20915;DHT22;10617;52.032;5.298;2023-06-10T18:51:58;30.00;68.80
20915;DHT22;10617;52.032;5.298;2023-06-10T18:56:00;29.90;68.30
20915;DHT22;10617;52.032;5.298;2023-06-10T19:00:05;29.80;68.40
20915;DHT22;10617;52.032;5.298;2023-06-10T19:04:07;29.70;68.40
20915;DHT22;10617;52.032;5.298;2023-06-10T19:08:09;29.60;68.30
20915;DHT22;10617;52.032;5.298;2023-06-10T19:12:10;29.60;68.20
20915;DHT22;10617;52.032;5.298;2023-06-10T19:16:12;29.50;68.00
20915;DHT22;10617;52.032;5.298;2023-06-10T19:20:14;29.40;68.00
20915;DHT22;10617;52.032;5.298;2023-06-10T19:24:16;29.30;67.80
20915;DHT22;10617;52.032;5.298;2023-06-10T19:28:18;29.20;67.80
20915;DHT22;10617;52.032;5.298;2023-06-10T19:32:19;29.10;67.70
20915;DHT22;10617;52.032;5.298;2023-06-10T19:36:21;29.00;67.70
20915;DHT22;10617;52.032;5.298;2023-06-10T19:40:23;28.90;67.70
20915;DHT22;10617;52.032;5.298;2023-06-10T19:44:25;28.80;67.80
20915;DHT22;10617;52.032;5.298;2023-06-10T19:48:26;28.60;67.90
20915;DHT22;10617;52.032;5.298;2023-06-10T19:52:28;28.50;67.90
20915;DHT22;10617;52.032;5.298;2023-06-10T19:56:30;28.30;67.80
20915;DHT22;10617;52.032;5.298;2023-06-10T20:00:31;28.20;68.30
20915;DHT22;10617;52.032;5.298;2023-06-10T20:04:33;28.10;67.70
20915;DHT22;10617;52.032;5.298;2023-06-10T20:08:35;28.00;67.70
20915;DHT22;10617;52.032;5.298;2023-06-10T20:12:36;27.90;68.30
20915;DHT22;10617;52.032;5.298;2023-06-10T20:16:38;27.80;67.50
20915;DHT22;10617;52.032;5.298;2023-06-10T20:20:40;27.70;67.40
20915;DHT22;10617;52.032;5.298;2023-06-10T20:24:42;27.60;67.30
20915;DHT22;10617;52.032;5.298;2023-06-10T20:28:43;27.40;67.10
20915;DHT22;10617;52.032;5.298;2023-06-10T20:32:45;27.40;67.00
20915;DHT22;10617;52.032;5.298;2023-06-10T20:36:47;27.20;67.00
20915;DHT22;10617;52.032;5.298;2023-06-10T20:40:49;27.20;67.00
20915;DHT22;10617;52.032;5.298;2023-06-10T20:44:51;27.10;66.90
20915;DHT22;10617;52.032;5.298;2023-06-10T21:04:03;26.80;66.50
20915;DHT22;10617;52.032;5.298;2023-06-10T21:08:05;26.70;66.50
20915;DHT22;10617;52.032;5.298;2023-06-10T21:12:07;26.60;66.90
20915;DHT22;10617;52.032;5.298;2023-06-10T21:16:09;26.50;66.30
20915;DHT22;10617;52.032;5.298;2023-06-10T21:20:12;26.50;66.20
20915;DHT22;10617;52.032;5.298;2023-06-10T21:24:13;26.40;66.10
20915;DHT22;10617;52.032;5.298;2023-06-10T21:28:15;26.30;66.00
20915;DHT22;10617;52.032;5.298;2023-06-10T21:32:17;26.30;66.00
20915;DHT22;10617;52.032;5.298;2023-06-10T21:36:19;26.20;65.90
20915;DHT22;10617;52.032;5.298;2023-06-10T21:40:21;26.10;65.90
20915;DHT22;10617;52.032;5.298;2023-06-10T21:44:22;26.10;65.90
20915;DHT22;10617;52.032;5.298;2023-06-10T21:48:24;26.00;65.80
20915;DHT22;10617;52.032;5.298;2023-06-10T21:52:26;26.00;65.90
20915;DHT22;10617;52.032;5.298;2023-06-10T21:56:28;25.90;65.90
20915;DHT22;10617;52.032;5.298;2023-06-10T22:00:33;25.80;65.80
20915;DHT22;10617;52.032;5.298;2023-06-10T22:04:35;25.80;65.90
20915;DHT22;10617;52.032;5.298;2023-06-10T22:08:36;25.70;65.80
20915;DHT22;10617;52.032;5.298;2023-06-10T22:12:38;25.70;65.90
20915;DHT22;10617;52.032;5.298;2023-06-10T22:16:40;25.60;65.90
20915;DHT22;10617;52.032;5.298;2023-06-10T22:20:43;25.60;66.00
20915;DHT22;10617;52.032;5.298;2023-06-10T22:24:46;25.60;66.10
20915;DHT22;10617;52.032;5.298;2023-06-10T22:28:50;25.50;66.00
20915;DHT22;10617;52.032;5.298;2023-06-10T22:32:52;25.50;66.10
20915;DHT22;10617;52.032;5.298;2023-06-10T22:36:53;25.40;66.10
20915;DHT22;10617;52.032;5.298;2023-06-10T22:40:55;25.30;66.10
20915;DHT22;10617;52.032;5.298;2023-06-10T22:44:57;25.30;66.20
20915;DHT22;10617;52.032;5.298;2023-06-10T22:48:58;25.20;66.10
20915;DHT22;10617;52.032;5.298;2023-06-10T22:57:57;25.20;66.30
20915;DHT22;10617;52.032;5.298;2023-06-10T23:01:58;25.10;66.30
20915;DHT22;10617;52.032;5.298;2023-06-10T23:06:00;25.10;66.40
20915;DHT22;10617;52.032;5.298;2023-06-10T23:10:02;25.10;66.50
20915;DHT22;10617;52.032;5.298;2023-06-10T23:14:04;25.10;66.50
20915;DHT22;10617;52.032;5.298;2023-06-10T23:18:05;25.00;66.50
20915;DHT22;10617;52.032;5.298;2023-06-10T23:22:07;25.00;66.60
20915;DHT22;10617;52.032;5.298;2023-06-10T23:26:09;24.90;66.50
20915;DHT22;10617;52.032;5.298;2023-06-10T23:30:12;24.90;66.60
20915;DHT22;10617;52.032;5.298;2023-06-10T23:34:13;24.80;66.60
20915;DHT22;10617;52.032;5.298;2023-06-10T23:38:15;24.80;66.70
20915;DHT22;10617;52.032;5.298;2023-06-10T23:42:17;24.80;66.90
